Time;durP1;ratioP1;P1;durP2;ratioP2;P2;SDS_P1;SDS_P2;PMS_P1;PMS_P2;Temp;Humidity;BMP_temperature;BMP_pressure;BME280_temperature;BME280_humidity;BME280_pressure;Samples;Min_cycle;Max_cycle;Signal;HPM_P1;HPM_P2
2023/06/24 00:00:11;;;;;;;15.50;11.70;;;;;;;;;;5015326;28;20042;-77
2023/06/24 00:02:38;;;;;;;16.45;11.77;;;;;;;;;;5014022;28;20050;-78
2023/06/24 00:05:06;;;;;;;17.08;12.60;;;;;;;;;;5017839;28;20126;-76
2023/06/24 00:07:35;;;;;;;14.98;11.93;;;;;;;;;;5037845;28;20527;-77
2023/06/24 00:10:03;;;;;;;15.43;11.98;;;;;;;;;;5041306;28;20056;-77
2023/06/24 00:12:29;;;;;;;15.25;11.90;;;;;;;;;;5037933;28;20069;-77
2023/06/24 00:14:55;;;;;;;15.85;11.90;;;;;;;;;;5034779;28;20041;-77
2023/06/24 00:17:21;;;;;;;17.10;11.90;;;;;;;;;;5035889;28;20490;-76
2023/06/24 00:19:47;;;;;;;16.38;13.02;;;;;;;;;;5034261;28;20063;-77
2023/06/24 00:22:13;;;;;;;17.90;13.55;;;;;;;;;;5029221;28;20496;-77
2023/06/24 00:24:42;;;;;;;17.75;14.60;;;;;;;;;;5014296;28;20049;-77
2023/06/24 00:27:08;;;;;;;17.00;12.95;;;;;;;;;;5026134;28;20049;-77
2023/06/24 00:29:34;;;;;;;18.40;13.30;;;;;;;;;;5034464;28;20203;-77
2023/06/24 00:32:00;;;;;;;16.50;13.00;;;;;;;;;;5034320;28;20172;-77
2023/06/24 00:34:26;;;;;;;15.25;12.32;;;;;;;;;;5034824;28;20046;-76
2023/06/24 00:36:52;;;;;;;18.38;12.93;;;;;;;;;;5033936;28;20068;-77
2023/06/24 00:39:18;;;;;;;17.63;13.95;;;;;;;;;;5033952;28;20407;-77
2023/06/24 00:41:44;;;;;;;18.42;13.32;;;;;;;;;;5034396;28;20049;-77
2023/06/24 00:44:10;;;;;;;15.50;12.80;;;;;;;;;;5032732;28;20476;-77
2023/06/24 00:46:37;;;;;;;15.30;12.20;;;;;;;;;;5033467;28;20055;-77
2023/06/24 00:49:03;;;;;;;17.75;12.30;;;;;;;;;;5034064;28;20045;-76
2023/06/24 00:51:31;;;;;;;16.45;12.57;;;;;;;;;;5033470;28;20084;-76
2023/06/24 00:53:58;;;;;;;15.45;11.43;;;;;;;;;;5033476;28;20512;-76
2023/06/24 00:56:26;;;;;;;15.68;11.90;;;;;;;;;;5033705;28;20056;-77
2023/06/24 00:58:53;;;;;;;16.92;12.40;;;;;;;;;;5033969;28;20056;-77
2023/06/24 01:01:19;;;;;;;15.10;11.73;;;;;;;;;;5033279;28;20136;-77
2023/06/24 01:03:46;;;;;;;17.10;11.88;;;;;;;;;;5034062;28;20037;-76
2023/06/24 01:06:12;;;;;;;14.18;11.32;;;;;;;;;;5033339;28;20045;-76
2023/06/24 01:08:38;;;;;;;16.60;12.20;;;;;;;;;;5033570;28;20037;-76
2023/06/24 01:11:04;;;;;;;17.67;12.55;;;;;;;;;;5033350;28;20046;-76
2023/06/24 01:13:30;;;;;;;16.95;12.40;;;;;;;;;;5034269;28;20551;-76
2023/06/24 01:15:58;;;;;;;15.30;11.40;;;;;;;;;;5021062;28;20042;-76
2023/06/24 01:18:34;;;;;;;19.13;12.88;;;;;;;;;;5013894;28;20100;-76
2023/06/24 01:21:03;;;;;;;14.18;11.45;;;;;;;;;;5011526;28;20049;-76
2023/06/24 01:23:47;;;;;;;14.65;11.18;;;;;;;;;;5013199;28;20065;-76
2023/06/24 01:26:13;;;;;;;15.73;12.07;;;;;;;;;;5013179;28;20423;-76
2023/06/24 01:29:03;;;;;;;15.77;11.93;;;;;;;;;;5013911;28;20081;-76
2023/06/24 01:31:38;;;;;;;18.67;12.10;;;;;;;;;;5013404;28;20046;-77
2023/06/24 01:34:15;;;;;;;16.55;11.68;;;;;;;;;;5013895;28;20173;-76
2023/06/24 01:36:44;;;;;;;17.00;11.38;;;;;;;;;;5013384;28;20042;-76
2023/06/24 01:39:12;;;;;;;16.05;11.73;;;;;;;;;;5012166;28;20061;-77
2023/06/24 01:41:42;;;;;;;15.75;11.90;;;;;;;;;;5013393;28;20038;-77
2023/06/24 01:44:13;;;;;;;14.90;11.52;;;;;;;;;;5013604;28;20093;-76
2023/06/24 01:46:40;;;;;;;16.42;11.63;;;;;;;;;;5013121;28;20129;-76
2023/06/24 01:49:08;;;;;;;14.95;11.88;;;;;;;;;;5013416;28;20464;-76
2023/06/24 01:51:36;;;;;;;16.35;11.85;;;;;;;;;;5012913;28;20086;-76
2023/06/24 01:54:03;;;;;;;14.57;11.38;;;;;;;;;;5013769;28;20053;-76
2023/06/24 01:56:30;;;;;;;15.85;11.73;;;;;;;;;;5012977;28;20384;-76
2023/06/24 01:58:57;;;;;;;15.05;11.50;;;;;;;;;;5013192;28;20384;-76
2023/06/24 02:01:24;;;;;;;17.83;11.98;;;;;;;;;;5012835;28;20408;-76
2023/06/24 02:03:50;;;;;;;15.55;11.80;;;;;;;;;;5013182;28;20046;-76
2023/06/24 02:06:17;;;;;;;14.32;11.32;;;;;;;;;;5012697;28;20100;-76
2023/06/24 02:08:44;;;;;;;15.20;11.15;;;;;;;;;;5012768;28;20400;-76
2023/06/24 02:11:11;;;;;;;15.52;12.13;;;;;;;;;;5013311;28;20041;-76
2023/06/24 02:13:39;;;;;;;15.98;11.75;;;;;;;;;;5013221;28;20112;-76
2023/06/24 02:16:06;;;;;;;16.98;11.80;;;;;;;;;;5013110;28;20050;-76
2023/06/24 02:18:33;;;;;;;14.13;11.35;;;;;;;;;;5013256;28;20192;-77
2023/06/24 02:21:00;;;;;;;18.05;12.30;;;;;;;;;;5012707;28;20053;-77
2023/06/24 02:23:27;;;;;;;15.80;12.05;;;;;;;;;;5012842;28;20140;-76
2023/06/24 02:25:53;;;;;;;16.20;12.52;;;;;;;;;;5012898;28;20057;-76
2023/06/24 02:28:19;;;;;;;17.60;12.98;;;;;;;;;;5013336;28;20041;-76
2023/06/24 02:30:45;;;;;;;19.90;13.10;;;;;;;;;;5013560;28;20125;-76
2023/06/24 02:33:11;;;;;;;18.73;12.77;;;;;;;;;;5017620;28;20105;-77
2023/06/24 02:35:41;;;;;;;17.73;12.45;;;;;;;;;;5016718;28;20515;-76
2023/06/24 02:38:07;;;;;;;18.17;13.50;;;;;;;;;;5016987;28;20135;-76
2023/06/24 02:40:33;;;;;;;18.08;13.27;;;;;;;;;;5016577;28;20155;-76
2023/06/24 02:43:00;;;;;;;17.92;12.95;;;;;;;;;;5016640;28;20428;-76
2023/06/24 02:45:26;;;;;;;20.27;13.32;;;;;;;;;;5016520;28;20076;-76
2023/06/24 02:47:52;;;;;;;19.25;12.80;;;;;;;;;;5017010;28;20100;-76
2023/06/24 02:50:19;;;;;;;19.45;13.07;;;;;;;;;;5015990;28;20049;-76
2023/06/24 02:52:45;;;;;;;19.50;13.35;;;;;;;;;;5015339;28;20042;-76
2023/06/24 02:55:12;;;;;;;17.02;12.57;;;;;;;;;;5016562;28;20101;-77
2023/06/24 02:57:39;;;;;;;17.50;12.65;;;;;;;;;;5016687;28;20050;-77
2023/06/24 03:00:08;;;;;;;17.75;13.00;;;;;;;;;;5016379;28;20045;-77
2023/06/24 03:02:35;;;;;;;19.85;12.63;;;;;;;;;;5014532;28;20049;-77
2023/06/24 03:05:02;;;;;;;18.02;13.10;;;;;;;;;;5016261;28;20042;-77
2023/06/24 03:07:28;;;;;;;20.73;13.60;;;;;;;;;;5016539;28;20064;-77
2023/06/24 03:09:54;;;;;;;17.52;12.68;;;;;;;;;;5016037;28;20038;-76
2023/06/24 03:12:20;;;;;;;16.75;12.27;;;;;;;;;;5016180;28;20076;-77
2023/06/24 03:14:46;;;;;;;18.73;12.45;;;;;;;;;;5016027;28;20528;-76
2023/06/24 03:17:12;;;;;;;20.02;13.07;;;;;;;;;;5015733;28;20061;-76
2023/06/24 03:19:38;;;;;;;18.63;12.68;;;;;;;;;;5016504;28;20042;-76
2023/06/24 03:22:04;;;;;;;17.33;12.80;;;;;;;;;;5015922;28;20104;-76
2023/06/24 03:24:30;;;;;;;14.88;12.55;;;;;;;;;;5015635;28;20054;-76
2023/06/24 03:26:57;;;;;;;15.07;11.60;;;;;;;;;;5016040;28;20137;-76
2023/06/24 03:29:26;;;;;;;16.27;11.63;;;;;;;;;;5016281;28;20156;-76
2023/06/24 03:31:52;;;;;;;17.83;12.20;;;;;;;;;;5015523;28;20046;-77
2023/06/24 03:34:18;;;;;;;19.30;12.15;;;;;;;;;;5015982;28;20046;-76
2023/06/24 03:36:44;;;;;;;16.80;11.93;;;;;;;;;;5015609;28;20037;-76
2023/06/24 03:39:10;;;;;;;17.55;12.13;;;;;;;;;;5015259;28;20046;-76
2023/06/24 03:41:37;;;;;;;15.90;12.07;;;;;;;;;;5015158;28;20089;-77
2023/06/24 03:44:03;;;;;;;16.30;12.13;;;;;;;;;;5014666;28;20081;-76
2023/06/24 03:46:32;;;;;;;16.55;12.38;;;;;;;;;;5015244;28;20042;-76
2023/06/24 03:49:00;;;;;;;18.75;12.52;;;;;;;;;;5015532;28;20136;-76
2023/06/24 03:51:26;;;;;;;15.35;11.98;;;;;;;;;;5014081;28;20128;-76
2023/06/24 03:53:52;;;;;;;19.63;12.13;;;;;;;;;;5015315;28;20104;-76
2023/06/24 03:56:18;;;;;;;17.15;12.57;;;;;;;;;;5016102;28;20103;-76
2023/06/24 03:58:44;;;;;;;21.25;12.88;;;;;;;;;;5019020;28;20489;-77
2023/06/24 04:01:11;;;;;;;18.50;12.75;;;;;;;;;;5017843;28;20135;-77
2023/06/24 04:03:37;;;;;;;17.67;12.70;;;;;;;;;;5016384;28;20052;-78
2023/06/24 04:06:03;;;;;;;17.52;11.98;;;;;;;;;;5015241;28;20146;-78
2023/06/24 04:08:29;;;;;;;19.05;13.25;;;;;;;;;;5014439;28;20573;-78
2023/06/24 04:11:00;;;;;;;17.60;12.32;;;;;;;;;;5014957;28;20042;-77
2023/06/24 04:13:26;;;;;;;18.58;12.35;;;;;;;;;;5015216;28;20489;-78
2023/06/24 04:15:52;;;;;;;19.58;12.82;;;;;;;;;;5014820;28;20128;-77
2023/06/24 04:18:19;;;;;;;18.88;12.63;;;;;;;;;;5015090;28;20124;-77
2023/06/24 04:20:45;;;;;;;20.42;12.80;;;;;;;;;;5013508;28;20134;-78
2023/06/24 04:23:14;;;;;;;18.23;12.30;;;;;;;;;;5012963;28;20173;-78
2023/06/24 04:25:40;;;;;;;14.32;11.23;;;;;;;;;;5014509;28;20125;-78
2023/06/24 04:28:06;;;;;;;17.33;11.02;;;;;;;;;;5015331;28;20042;-77
2023/06/24 04:30:35;;;;;;;16.77;11.90;;;;;;;;;;5014547;28;20247;-77
2023/06/24 04:33:01;;;;;;;13.75;10.18;;;;;;;;;;5014454;28;20461;-77
2023/06/24 04:35:27;;;;;;;13.75;10.75;;;;;;;;;;5014384;28;20046;-77
2023/06/24 04:37:53;;;;;;;14.55;11.20;;;;;;;;;;5014602;28;20061;-77
2023/06/24 04:40:19;;;;;;;15.18;11.02;;;;;;;;;;5014981;28;20049;-77
2023/06/24 04:42:45;;;;;;;13.82;10.95;;;;;;;;;;5014931;28;20038;-77
2023/06/24 04:45:11;;;;;;;17.33;11.23;;;;;;;;;;5014063;28;20496;-77
2023/06/24 04:47:37;;;;;;;15.93;11.25;;;;;;;;;;5014205;28;20041;-77
2023/06/24 04:50:04;;;;;;;14.60;11.45;;;;;;;;;;5014313;28;20403;-77
2023/06/24 04:52:30;;;;;;;15.18;11.75;;;;;;;;;;5014544;28;20037;-77
2023/06/24 04:54:56;;;;;;;13.65;10.10;;;;;;;;;;5013723;28;20038;-77
2023/06/24 04:57:26;;;;;;;14.20;11.10;;;;;;;;;;5014067;28;20170;-77
2023/06/24 04:59:52;;;;;;;15.02;10.48;;;;;;;;;;5014379;28;20046;-77
2023/06/24 05:02:18;;;;;;;14.00;10.45;;;;;;;;;;5013973;28;20046;-77
2023/06/24 05:04:44;;;;;;;13.40;10.75;;;;;;;;;;5014198;28;20053;-77
2023/06/24 05:07:11;;;;;;;13.48;10.00;;;;;;;;;;5014399;28;20155;-77
2023/06/24 05:09:37;;;;;;;15.32;11.00;;;;;;;;;;5014014;28;20087;-77
2023/06/24 05:12:07;;;;;;;13.73;10.07;;;;;;;;;;5013843;28;20045;-77
2023/06/24 05:14:37;;;;;;;12.77;9.90;;;;;;;;;;5014609;28;20060;-77
2023/06/24 05:17:06;;;;;;;12.35;9.27;;;;;;;;;;5033198;28;20479;-77
2023/06/24 05:19:32;;;;;;;12.20;9.90;;;;;;;;;;5033679;28;20484;-77
2023/06/24 05:21:58;;;;;;;14.50;10.20;;;;;;;;;;5033298;28;20045;-77
2023/06/24 05:24:24;;;;;;;11.90;10.05;;;;;;;;;;5033070;28;20057;-77
2023/06/24 05:26:51;;;;;;;13.20;9.85;;;;;;;;;;5033304;28;20057;-77
2023/06/24 05:29:18;;;;;;;11.85;9.85;;;;;;;;;;5033260;28;20075;-77
2023/06/24 05:31:44;;;;;;;12.38;9.65;;;;;;;;;;5032967;28;20045;-77
2023/06/24 05:34:10;;;;;;;13.60;9.48;;;;;;;;;;5033490;28;20171;-77
2023/06/24 05:36:36;;;;;;;12.88;9.55;;;;;;;;;;5032927;28;20657;-77
2023/06/24 05:39:02;;;;;;;10.32;9.18;;;;;;;;;;5033755;28;20046;-77
2023/06/24 05:41:28;;;;;;;13.25;9.15;;;;;;;;;;5032865;28;20053;-77
2023/06/24 05:44:04;;;;;;;11.43;9.30;;;;;;;;;;5033495;28;20052;-77
2023/06/24 05:46:30;;;;;;;15.27;9.50;;;;;;;;;;5032727;28;20054;-77
2023/06/24 05:48:57;;;;;;;13.18;9.38;;;;;;;;;;5033370;28;20107;-77
2023/06/24 05:51:23;;;;;;;13.18;9.70;;;;;;;;;;5033032;28;20045;-77
2023/06/24 05:53:49;;;;;;;11.32;9.23;;;;;;;;;;5033141;28;20052;-77
2023/06/24 05:56:15;;;;;;;13.60;9.57;;;;;;;;;;5033021;28;20041;-77
2023/06/24 05:58:41;;;;;;;13.05;9.75;;;;;;;;;;5033086;28;20049;-77
2023/06/24 06:01:10;;;;;;;14.15;10.02;;;;;;;;;;5031503;28;20438;-77
2023/06/24 06:03:37;;;;;;;13.38;9.60;;;;;;;;;;5033128;28;20326;-77
2023/06/24 06:06:03;;;;;;;14.15;10.27;;;;;;;;;;5034274;28;20048;-77
2023/06/24 06:08:29;;;;;;;15.30;10.95;;;;;;;;;;5037038;28;20045;-77
2023/06/24 06:10:55;;;;;;;13.68;10.02;;;;;;;;;;5036991;28;20081;-77
2023/06/24 06:13:21;;;;;;;13.63;9.95;;;;;;;;;;5037336;28;20045;-77
2023/06/24 06:15:47;;;;;;;13.07;9.98;;;;;;;;;;5036776;28;20052;-77
2023/06/24 06:18:13;;;;;;;13.32;9.95;;;;;;;;;;5037129;28;20038;-77
2023/06/24 06:20:39;;;;;;;14.15;10.32;;;;;;;;;;5036850;28;20487;-77
2023/06/24 06:23:05;;;;;;;16.20;10.48;;;;;;;;;;5036958;28;20463;-77
2023/06/24 06:25:31;;;;;;;14.85;10.38;;;;;;;;;;5035222;28;20121;-77
2023/06/24 06:27:58;;;;;;;16.58;10.98;;;;;;;;;;5036518;28;20101;-77
2023/06/24 06:30:24;;;;;;;13.98;10.00;;;;;;;;;;5036761;28;20053;-77
2023/06/24 06:32:50;;;;;;;13.98;11.13;;;;;;;;;;5036988;28;20042;-77
2023/06/24 06:35:16;;;;;;;14.55;11.05;;;;;;;;;;5035691;28;20429;-77
2023/06/24 06:37:42;;;;;;;14.02;10.18;;;;;;;;;;5036918;28;20080;-77
2023/06/24 06:40:08;;;;;;;16.02;11.10;;;;;;;;;;5036211;28;20065;-77
2023/06/24 06:42:34;;;;;;;13.55;10.40;;;;;;;;;;5036501;28;20553;-77
2023/06/24 06:45:00;;;;;;;13.63;10.05;;;;;;;;;;5036074;28;20546;-77
2023/06/24 06:47:26;;;;;;;14.90;10.93;;;;;;;;;;5035773;28;20037;-77
2023/06/24 06:49:52;;;;;;;12.35;10.52;;;;;;;;;;5036331;28;20073;-77
2023/06/24 06:52:18;;;;;;;13.90;10.63;;;;;;;;;;5036142;28;20137;-77
2023/06/24 06:54:45;;;;;;;12.88;10.77;;;;;;;;;;5034182;28;20049;-77
2023/06/24 06:57:11;;;;;;;13.88;10.73;;;;;;;;;;5016284;28;20053;-77
2023/06/24 06:59:37;;;;;;;12.57;10.18;;;;;;;;;;5016753;28;20103;-77
2023/06/24 07:02:03;;;;;;;14.82;10.77;;;;;;;;;;5015810;28;20445;-77
2023/06/24 07:04:30;;;;;;;15.23;10.63;;;;;;;;;;5016192;28;20053;-77
2023/06/24 07:06:56;;;;;;;13.07;10.20;;;;;;;;;;5016073;28;20046;-77
2023/06/24 07:09:22;;;;;;;15.75;11.48;;;;;;;;;;5014614;28;20125;-77
2023/06/24 07:11:48;;;;;;;14.40;10.38;;;;;;;;;;5015904;28;20042;-77
2023/06/24 07:14:15;;;;;;;12.75;10.05;;;;;;;;;;5014607;28;20160;-77
2023/06/24 07:16:41;;;;;;;14.23;10.30;;;;;;;;;;5015707;28;20056;-77
2023/06/24 07:19:07;;;;;;;13.75;9.85;;;;;;;;;;5015606;28;20468;-77
2023/06/24 07:21:33;;;;;;;13.32;10.52;;;;;;;;;;5015442;28;20436;-78
2023/06/24 07:23:59;;;;;;;14.70;10.07;;;;;;;;;;5014864;28;20084;-78
2023/06/24 07:26:28;;;;;;;14.05;10.48;;;;;;;;;;5015431;28;20046;-77
2023/06/24 07:28:56;;;;;;;13.82;10.80;;;;;;;;;;5015927;28;20084;-77
2023/06/24 07:31:22;;;;;;;14.02;9.88;;;;;;;;;;5015593;28;20089;-78
2023/06/24 07:33:48;;;;;;;15.60;10.32;;;;;;;;;;5014492;28;20041;-78
2023/06/24 07:36:14;;;;;;;16.05;10.43;;;;;;;;;;5015663;28;20049;-78
2023/06/24 07:38:40;;;;;;;16.42;10.40;;;;;;;;;;5015751;28;20049;-78
2023/06/24 07:41:06;;;;;;;14.48;10.35;;;;;;;;;;5015715;28;20134;-78
2023/06/24 07:43:32;;;;;;;14.60;10.45;;;;;;;;;;5015249;28;20041;-78
2023/06/24 07:45:59;;;;;;;14.20;10.25;;;;;;;;;;5019591;28;20235;-78
2023/06/24 07:48:25;;;;;;;12.55;9.70;;;;;;;;;;5021051;28;20445;-78
2023/06/24 07:50:51;;;;;;;14.40;10.38;;;;;;;;;;5020862;28;20061;-78
2023/06/24 07:53:17;;;;;;;15.98;10.07;;;;;;;;;;5015613;28;20492;-78
2023/06/24 07:55:43;;;;;;;12.65;10.52;;;;;;;;;;5015326;28;20223;-78
2023/06/24 07:58:09;;;;;;;13.00;10.30;;;;;;;;;;5014605;28;20057;-77
2023/06/24 08:00:35;;;;;;;12.80;9.98;;;;;;;;;;5015230;28;20578;-77
2023/06/24 08:03:02;;;;;;;15.23;10.18;;;;;;;;;;5015215;28;20045;-77
2023/06/24 08:05:28;;;;;;;15.25;10.30;;;;;;;;;;5015308;28;20049;-77
2023/06/24 08:07:54;;;;;;;13.55;9.70;;;;;;;;;;5015413;28;20099;-77
2023/06/24 08:10:20;;;;;;;12.98;9.60;;;;;;;;;;5014980;28;20052;-77
2023/06/24 08:12:46;;;;;;;11.27;8.88;;;;;;;;;;5015498;28;20088;-77
2023/06/24 08:15:12;;;;;;;12.50;9.52;;;;;;;;;;5014808;28;20046;-77
2023/06/24 08:17:38;;;;;;;12.35;9.02;;;;;;;;;;5014982;28;20074;-77
2023/06/24 08:20:05;;;;;;;13.00;9.77;;;;;;;;;;5014619;28;20463;-77
2023/06/24 08:22:31;;;;;;;14.07;9.70;;;;;;;;;;5015245;28;20385;-77
2023/06/24 08:24:59;;;;;;;13.25;9.55;;;;;;;;;;5014808;28;20054;-77
2023/06/24 08:27:25;;;;;;;13.10;9.18;;;;;;;;;;5014572;28;20049;-78
2023/06/24 08:29:51;;;;;;;12.35;8.77;;;;;;;;;;5013160;28;20132;-78
2023/06/24 08:32:17;;;;;;;13.05;9.25;;;;;;;;;;5014499;28;20069;-78
2023/06/24 08:34:43;;;;;;;11.35;9.27;;;;;;;;;;5013609;28;20053;-78
2023/06/24 08:37:09;;;;;;;13.10;9.30;;;;;;;;;;5014544;28;20045;-78
2023/06/24 08:39:37;;;;;;;11.88;9.02;;;;;;;;;;5014765;28;20046;-78
2023/06/24 08:42:03;;;;;;;12.32;8.88;;;;;;;;;;5014000;28;20058;-78
2023/06/24 08:44:29;;;;;;;14.23;9.02;;;;;;;;;;5015043;28;20057;-78
2023/06/24 08:46:56;;;;;;;11.95;7.88;;;;;;;;;;5014186;28;20091;-78
2023/06/24 08:49:24;;;;;;;10.55;7.32;;;;;;;;;;5013940;28;20121;-78
2023/06/24 08:51:55;;;;;;;10.35;7.38;;;;;;;;;;5012951;28;20072;-78
2023/06/24 08:54:22;;;;;;;15.25;7.13;;;;;;;;;;5012776;28;20045;-77
2023/06/24 08:56:48;;;;;;;9.05;7.28;;;;;;;;;;5032337;28;20084;-78
2023/06/24 08:59:19;;;;;;;12.07;6.68;;;;;;;;;;5032254;28;20096;-78
2023/06/24 09:01:45;;;;;;;8.93;6.65;;;;;;;;;;5033795;28;20049;-78
2023/06/24 09:04:11;;;;;;;8.73;6.60;;;;;;;;;;5032705;28;20103;-78
2023/06/24 09:06:37;;;;;;;9.02;6.80;;;;;;;;;;5032172;28;20384;-78
2023/06/24 09:09:04;;;;;;;9.60;6.15;;;;;;;;;;5032694;28;20080;-78
2023/06/24 09:11:32;;;;;;;10.50;6.93;;;;;;;;;;5033327;28;20057;-78
2023/06/24 09:13:59;;;;;;;8.13;6.78;;;;;;;;;;5032568;28;20084;-78
2023/06/24 09:16:25;;;;;;;8.75;6.20;;;;;;;;;;5032160;28;20062;-78
2023/06/24 09:18:52;;;;;;;11.35;6.90;;;;;;;;;;5033509;28;20064;-78
2023/06/24 09:21:30;;;;;;;9.27;6.60;;;;;;;;;;5033372;28;20046;-77
2023/06/24 09:23:57;;;;;;;9.07;6.40;;;;;;;;;;5033471;28;20108;-78
2023/06/24 09:26:24;;;;;;;10.07;7.20;;;;;;;;;;5033258;28;20050;-77
2023/06/24 09:28:50;;;;;;;10.13;6.90;;;;;;;;;;5033760;28;20124;-77
2023/06/24 09:31:17;;;;;;;12.43;7.10;;;;;;;;;;5033127;28;20069;-77
2023/06/24 09:33:43;;;;;;;36.65;10.45;;;;;;;;;;5033473;28;20092;-77
2023/06/24 09:36:15;;;;;;;16.75;8.32;;;;;;;;;;5033129;28;20056;-77
2023/06/24 09:38:44;;;;;;;11.52;7.50;;;;;;;;;;5031999;28;20060;-78
2023/06/24 09:41:10;;;;;;;8.32;6.85;;;;;;;;;;5032380;28;20106;-78
2023/06/24 09:43:36;;;;;;;9.48;6.65;;;;;;;;;;5033512;28;20049;-78
2023/06/24 09:46:06;;;;;;;8.15;6.32;;;;;;;;;;5032788;28;20144;-77
2023/06/24 09:48:36;;;;;;;8.43;6.30;;;;;;;;;;5033058;28;20044;-77
2023/06/24 09:51:03;;;;;;;10.95;6.03;;;;;;;;;;5032600;28;20120;-77
2023/06/24 09:53:33;;;;;;;7.38;5.95;;;;;;;;;;5033422;28;20064;-77
2023/06/24 09:56:00;;;;;;;8.13;5.95;;;;;;;;;;5032771;28;20116;-77
2023/06/24 09:58:27;;;;;;;10.90;7.05;;;;;;;;;;5031941;28;20095;-77
2023/06/24 10:00:54;;;;;;;8.65;6.90;;;;;;;;;;5032597;28;20133;-77
2023/06/24 10:03:21;;;;;;;11.35;6.57;;;;;;;;;;5032075;28;20111;-77
2023/06/24 10:05:47;;;;;;;9.52;7.15;;;;;;;;;;5033087;28;20077;-77
2023/06/24 10:08:14;;;;;;;10.15;6.97;;;;;;;;;;5032801;28;20049;-77
2023/06/24 10:10:40;;;;;;;9.52;6.95;;;;;;;;;;5031388;28;20084;-77
2023/06/24 10:13:06;;;;;;;9.07;6.47;;;;;;;;;;5032553;28;20115;-77
2023/06/24 10:15:33;;;;;;;9.52;6.63;;;;;;;;;;5032870;28;20496;-77
2023/06/24 10:18:03;;;;;;;11.40;7.38;;;;;;;;;;5032705;28;20560;-78
2023/06/24 10:20:29;;;;;;;11.25;7.30;;;;;;;;;;5033018;28;20049;-77
2023/06/24 10:22:58;;;;;;;7.32;5.40;;;;;;;;;;5032766;28;20041;-77
2023/06/24 10:25:24;;;;;;;7.95;5.75;;;;;;;;;;5032612;28;20072;-77
2023/06/24 10:27:56;;;;;;;7.63;5.45;;;;;;;;;;5032959;28;20050;-77
2023/06/24 10:30:23;;;;;;;7.50;5.10;;;;;;;;;;5032762;28;20049;-77
2023/06/24 10:32:55;;;;;;;6.70;5.43;;;;;;;;;;5033458;28;20049;-77
2023/06/24 10:35:23;;;;;;;8.05;5.60;;;;;;;;;;5032503;28;20045;-77
2023/06/24 10:38:00;;;;;;;7.35;4.80;;;;;;;;;;5032489;28;20472;-77
2023/06/24 10:40:39;;;;;;;5.47;4.70;;;;;;;;;;5032579;28;20513;-77
2023/06/24 10:43:34;;;;;;;6.88;4.50;;;;;;;;;;5032694;28;20057;-77
2023/06/24 10:46:00;;;;;;;7.15;4.50;;;;;;;;;;5027695;28;20061;-77
2023/06/24 10:48:27;;;;;;;7.78;4.85;;;;;;;;;;5033135;28;20046;-78
2023/06/24 10:50:53;;;;;;;7.85;5.10;;;;;;;;;;5032229;28;20077;-78
2023/06/24 10:53:19;;;;;;;7.75;6.13;;;;;;;;;;5035803;28;20076;-77
2023/06/24 10:55:48;;;;;;;8.45;6.03;;;;;;;;;;5036678;28;20099;-77
2023/06/24 10:58:15;;;;;;;10.35;5.85;;;;;;;;;;5035955;28;20049;-77
2023/06/24 11:00:41;;;;;;;5.10;4.60;;;;;;;;;;5034721;28;20049;-77
2023/06/24 11:03:18;;;;;;;6.82;4.55;;;;;;;;;;5035799;28;20462;-77
2023/06/24 11:05:49;;;;;;;4.55;3.90;;;;;;;;;;5036036;28;20049;-77
2023/06/24 11:08:15;;;;;;;5.13;4.35;;;;;;;;;;5035929;28;20464;-77
2023/06/24 11:10:47;;;;;;;8.15;4.95;;;;;;;;;;5035673;28;20041;-77
2023/06/24 11:13:14;;;;;;;7.25;5.45;;;;;;;;;;5034759;28;20049;-77
2023/06/24 11:15:41;;;;;;;44.85;9.80;;;;;;;;;;5035945;28;20049;-77
2023/06/24 11:18:10;;;;;;;6.10;4.30;;;;;;;;;;5035847;28;20456;-77
2023/06/24 11:20:37;;;;;;;6.22;4.47;;;;;;;;;;5035404;28;20435;-77
2023/06/24 11:23:03;;;;;;;6.28;4.55;;;;;;;;;;5035323;28;20132;-77
2023/06/24 11:25:29;;;;;;;7.75;4.18;;;;;;;;;;5035678;28;20171;-77
2023/06/24 11:27:55;;;;;;;5.95;4.32;;;;;;;;;;5035478;28;20054;-77
2023/06/24 11:30:21;;;;;;;5.63;4.05;;;;;;;;;;5035420;28;20046;-77
2023/06/24 11:32:49;;;;;;;6.13;4.68;;;;;;;;;;5035624;28;20088;-77
2023/06/24 11:35:16;;;;;;;6.53;4.30;;;;;;;;;;5035949;28;20053;-77
2023/06/24 11:37:46;;;;;;;8.18;4.40;;;;;;;;;;5036075;28;20049;-77
2023/06/24 11:40:13;;;;;;;6.63;4.60;;;;;;;;;;5036113;28;20065;-77
2023/06/24 11:42:40;;;;;;;8.88;5.57;;;;;;;;;;5040448;28;20052;-78
2023/06/24 11:45:07;;;;;;;11.20;5.85;;;;;;;;;;5040651;28;20052;-78
2023/06/24 11:47:34;;;;;;;9.32;6.28;;;;;;;;;;5038581;28;20041;-78
2023/06/24 11:50:02;;;;;;;7.30;6.05;;;;;;;;;;5036056;28;20048;-78
2023/06/24 11:52:52;;;;;;;7.43;5.00;;;;;;;;;;5035328;28;20057;-77
2023/06/24 11:55:18;;;;;;;7.90;5.68;;;;;;;;;;5035362;28;20120;-79
2023/06/24 11:57:55;;;;;;;9.38;5.70;;;;;;;;;;5035474;28;20063;-78
2023/06/24 12:00:46;;;;;;;7.80;5.55;;;;;;;;;;5035590;28;20064;-77
2023/06/24 12:03:12;;;;;;;7.40;5.43;;;;;;;;;;5034478;28;20041;-77
2023/06/24 12:05:44;;;;;;;6.07;5.07;;;;;;;;;;5034776;28;20073;-77
2023/06/24 12:08:12;;;;;;;10.90;5.35;;;;;;;;;;5017357;28;20129;-77
2023/06/24 12:10:39;;;;;;;7.15;5.38;;;;;;;;;;5034752;28;20053;-77
2023/06/24 12:13:06;;;;;;;6.97;4.90;;;;;;;;;;5033443;28;20052;-77
2023/06/24 12:15:32;;;;;;;5.72;5.05;;;;;;;;;;5034801;28;20104;-77
2023/06/24 12:17:59;;;;;;;6.82;5.32;;;;;;;;;;5034638;28;20471;-77
2023/06/24 12:20:25;;;;;;;6.07;5.03;;;;;;;;;;5017167;28;20053;-78
2023/06/24 12:22:52;;;;;;;8.13;4.97;;;;;;;;;;5034630;28;20056;-78
2023/06/24 12:25:18;;;;;;;9.10;6.20;;;;;;;;;;5034090;28;20056;-78
2023/06/24 12:27:44;;;;;;;6.60;5.70;;;;;;;;;;5034562;28;20041;-78
2023/06/24 12:30:11;;;;;;;6.32;4.97;;;;;;;;;;5034148;28;20045;-78
2023/06/24 12:32:37;;;;;;;6.25;4.35;;;;;;;;;;5034344;28;20476;-78
2023/06/24 12:35:03;;;;;;;9.15;5.18;;;;;;;;;;5034367;28;20072;-78
2023/06/24 12:37:33;;;;;;;6.32;4.78;;;;;;;;;;5034492;28;20051;-78
2023/06/24 12:40:00;;;;;;;7.63;4.85;;;;;;;;;;5034074;28;20099;-77
2023/06/24 12:42:26;;;;;;;9.73;5.15;;;;;;;;;;5034737;28;20121;-78
2023/06/24 12:44:53;;;;;;;9.68;5.18;;;;;;;;;;5033918;28;20048;-77
2023/06/24 12:47:19;;;;;;;6.22;4.97;;;;;;;;;;5034031;28;20395;-77
2023/06/24 12:49:45;;;;;;;6.65;4.63;;;;;;;;;;5016683;28;20168;-79
2023/06/24 12:52:12;;;;;;;5.10;4.47;;;;;;;;;;5033698;28;20073;-79
2023/06/24 12:54:38;;;;;;;5.85;4.20;;;;;;;;;;5032993;28;20128;-78
2023/06/24 12:57:04;;;;;;;6.35;4.95;;;;;;;;;;5032423;28;20423;-79
2023/06/24 12:59:30;;;;;;;5.95;4.30;;;;;;;;;;5032915;28;20077;-79
2023/06/24 13:01:56;;;;;;;5.70;4.28;;;;;;;;;;5033996;28;20052;-79
2023/06/24 13:04:23;;;;;;;5.28;4.15;;;;;;;;;;5032649;28;20103;-78
2023/06/24 13:06:50;;;;;;;6.13;4.40;;;;;;;;;;5033235;28;20487;-79
2023/06/24 13:09:16;;;;;;;7.53;4.38;;;;;;;;;;5034268;28;20120;-79
2023/06/24 13:11:42;;;;;;;6.82;4.35;;;;;;;;;;5033818;28;20080;-78
2023/06/24 13:14:09;;;;;;;6.15;4.55;;;;;;;;;;5033596;28;20045;-78
2023/06/24 13:16:36;;;;;;;7.97;4.65;;;;;;;;;;5033061;28;20562;-78
2023/06/24 13:19:02;;;;;;;7.45;4.60;;;;;;;;;;5033252;28;20116;-78
2023/06/24 13:21:28;;;;;;;5.97;5.07;;;;;;;;;;5033091;28;20045;-78
2023/06/24 13:23:54;;;;;;;8.82;4.97;;;;;;;;;;5033531;28;20054;-78
2023/06/24 13:26:20;;;;;;;6.47;4.70;;;;;;;;;;5033735;28;20460;-78
2023/06/24 13:28:46;;;;;;;7.30;4.18;;;;;;;;;;5033891;28;20050;-77
2023/06/24 13:31:12;;;;;;;5.15;3.78;;;;;;;;;;5033226;28;20469;-77
2023/06/24 13:33:38;;;;;;;4.18;3.78;;;;;;;;;;5032902;28;20516;-77
2023/06/24 13:36:05;;;;;;;5.18;3.80;;;;;;;;;;5032937;28;20050;-77
2023/06/24 13:38:32;;;;;;;9.40;4.20;;;;;;;;;;5033394;28;20041;-77
2023/06/24 13:40:58;;;;;;;6.55;3.70;;;;;;;;;;5033244;28;20045;-77
2023/06/24 13:43:24;;;;;;;4.57;3.75;;;;;;;;;;5033746;28;20045;-77
2023/06/24 13:45:50;;;;;;;4.68;3.45;;;;;;;;;;5032949;28;20542;-77
2023/06/24 13:48:16;;;;;;;3.95;3.55;;;;;;;;;;5033649;28;20041;-77
2023/06/24 13:50:42;;;;;;;4.25;3.85;;;;;;;;;;5032966;28;20041;-77
2023/06/24 13:53:08;;;;;;;5.07;4.57;;;;;;;;;;5033466;28;20490;-77
2023/06/24 13:55:36;;;;;;;5.20;4.32;;;;;;;;;;5032990;28;20045;-77
2023/06/24 13:58:02;;;;;;;8.25;4.82;;;;;;;;;;5033481;28;20143;-78
2023/06/24 14:00:30;;;;;;;7.30;4.78;;;;;;;;;;5031577;28;20446;-78
2023/06/24 14:02:56;;;;;;;5.45;4.63;;;;;;;;;;5031481;28;20046;-78
2023/06/24 14:05:23;;;;;;;6.05;4.78;;;;;;;;;;5032874;28;20049;-78
2023/06/24 14:07:49;;;;;;;6.47;4.50;;;;;;;;;;5032795;28;20476;-78
2023/06/24 14:10:15;;;;;;;6.25;4.72;;;;;;;;;;5032157;28;20092;-77
2023/06/24 14:12:42;;;;;;;6.60;4.32;;;;;;;;;;5032874;28;20392;-77
2023/06/24 14:15:09;;;;;;;5.40;4.53;;;;;;;;;;5033288;28;20107;-77
2023/06/24 14:17:35;;;;;;;5.38;4.53;;;;;;;;;;5033487;28;20172;-78
2023/06/24 14:20:01;;;;;;;5.28;4.03;;;;;;;;;;5032437;28;20410;-78
2023/06/24 14:22:27;;;;;;;4.97;3.83;;;;;;;;;;5032620;28;20081;-78
2023/06/24 14:24:53;;;;;;;6.18;4.70;;;;;;;;;;5032511;28;20464;-78
2023/06/24 14:27:19;;;;;;;6.10;4.82;;;;;;;;;;5034278;28;20100;-78